Avalon — PBSF — position and weather

sailwx.info

Track history (hours):
 
Tides and Currents Weather Stations Pressure Air Temp Water Temp Dewpoint Dewpoint Depression Visibility Wind Speed Wind Dir Waves Ship Positions

Avalon

Last reported at 2017-Jan-17 21:25 UTC. Time now 2017-Jan-17 23:37 UTC.
Position N 54°01' E 007°50'.

Length 89 m; draft 5.4 m.

Type: Cargo ship. MMSI: 246578000.

Date/timePositionNaut miles runAvg speedWind from/ knotsBaromVisibWave heightAir tempDewpointWater temp
2017-Jan-17 21:25N 54°01' E 007°50'910.1
2017-Jan-17 20:31N 54°01' E 008°06'1111.5
2017-Jan-17 19:33N 53°60' E 008°25'1212.0
2017-Jan-17 18:33N 53°54' E 008°42'10 9.8
2017-Jan-17 17:33N 53°51' E 008°58'8 8.3
2017-Jan-17 16:33N 53°53' E 009°12'7 7.2
2017-Jan-17 15:33N 53°49' E 009°22'7 7.0
2017-Jan-17 14:33N 53°43' E 009°28'8 8.2
2017-Jan-17 13:33N 53°36' E 009°36'1110.9
2017-Jan-17 12:33N 53°33' E 009°53'3 3.5
2017-Jan-17 11:33N 53°30' E 009°57'0 0.0
2017-Jan-17 10:33N 53°30' E 009°57'0 0.0
2017-Jan-17 09:33N 53°30' E 009°57'0 0.0
2017-Jan-17 08:33N 53°30' E 009°57'0 0.0
2017-Jan-17 07:33N 53°30' E 009°57'0 0.0
2017-Jan-17 06:33N 53°30' E 009°57'0 0.0
2017-Jan-17 05:31N 53°30' E 009°57'0 0.0
2017-Jan-17 04:31N 53°30' E 009°57'0 0.0
2017-Jan-17 03:28N 53°30' E 009°57'0 0.0
2017-Jan-17 02:31N 53°30' E 009°57'0 0.0
2017-Jan-17 01:31N 53°30' E 009°57'0 0.0
2017-Jan-17 00:31N 53°30' E 009°57'0 0.0
2017-Jan-16 23:28N 53°30' E 009°57'0 0.0
2017-Jan-16 22:31N 53°30' E 009°57'0 0.0
2017-Jan-16 21:31N 53°30' E 009°57'0 0.0
2017-Jan-16 20:31N 53°30' E 009°57'0 0.0
2017-Jan-16 19:31N 53°30' E 009°57'0 0.0
2017-Jan-16 18:31N 53°30' E 009°57'0 0.0
2017-Jan-16 17:31N 53°30' E 009°57'0 0.0
2017-Jan-16 16:31N 53°30' E 009°57'0 0.0
2017-Jan-16 15:31N 53°30' E 009°57'0 0.0
2017-Jan-16 14:31N 53°30' E 009°57'1 1.4
2017-Jan-16 13:33N 53°31' E 009°56'6 6.2
2017-Jan-16 12:33N 53°34' E 009°47'6 5.9
2017-Jan-16 11:33N 53°35' E 009°37'3 2.5
2017-Jan-16 10:33N 53°37' E 009°34'0 0.0
2017-Jan-16 09:33N 53°37' E 009°34'0 0.0
2017-Jan-16 08:33N 53°37' E 009°34'0 0.0
2017-Jan-16 07:33N 53°37' E 009°34'0 0.0
2017-Jan-16 06:33N 53°37' E 009°34'0 0.1
2017-Jan-16 05:33N 53°37' E 009°34'0 0.0
2017-Jan-16 04:33N 53°37' E 009°34'0 0.0
2017-Jan-16 03:33N 53°37' E 009°34'0 0.0
2017-Jan-16 02:33N 53°37' E 009°34'0 0.0
2017-Jan-16 01:33N 53°37' E 009°34'4 4.1
2017-Jan-16 00:33N 53°40' E 009°31'1211.5
2017-Jan-15 23:34N 53°50' E 009°21'10 9.5
2017-Jan-15 22:33N 53°52' E 009°05'8 8.3
2017-Jan-15 21:33N 53°50' E 008°51'7 7.3
2017-Jan-15 20:33N 53°54' E 008°41'7 7.2
2017-Jan-15 19:32N 53°58' E 008°30'18 8.9
2017-Jan-15 17:30N 53°58' E 007°60'245 9.4
2017-Jan-14 15:33N 52°11' E 001°53'1211.8
2017-Jan-14 14:33N 51°59' E 001°49'1010.1
2017-Jan-14 13:33N 51°50' E 001°45'9 9.0
2017-Jan-14 12:33N 51°51' E 001°31'0 0.1
2017-Jan-14 11:31N 51°50' E 001°31'0 0.0
2017-Jan-14 10:31N 51°50' E 001°31'0 0.0
2017-Jan-14 09:31N 51°50' E 001°31'0 0.1
2017-Jan-14 08:31N 51°50' E 001°31'0 0.1
2017-Jan-14 07:31N 51°51' E 001°31'0 0.0
2017-Jan-14 06:31N 51°51' E 001°31'0 0.0
2017-Jan-14 05:31N 51°51' E 001°31'0 0.0
2017-Jan-14 04:31N 51°51' E 001°31'0 0.0
2017-Jan-14 03:28N 51°51' E 001°31'0 0.0
2017-Jan-13 23:31N 51°50' E 001°31'0 0.1
2017-Jan-13 22:31N 51°50' E 001°31'0 0.0
2017-Jan-13 21:31N 51°50' E 001°31'0 0.0
2017-Jan-13 20:31N 51°50' E 001°31'0 0.0
2017-Jan-13 19:31N 51°50' E 001°31'0 0.1
2017-Jan-13 18:31N 51°50' E 001°31'0 0.0
2017-Jan-13 17:31N 51°50' E 001°31'0 0.0
2017-Jan-13 16:31N 51°50' E 001°31'0 0.0
2017-Jan-13 15:31N 51°50' E 001°31'0 0.0
2017-Jan-13 14:31N 51°50' E 001°31'0 0.2
2017-Jan-13 13:31N 51°51' E 001°31'0 0.0
2017-Jan-13 12:31N 51°51' E 001°31'0 0.1
2017-Jan-13 11:31N 51°51' E 001°31'0 0.1
2017-Jan-13 10:31N 51°51' E 001°31'0 0.1
2017-Jan-13 09:31N 51°51' E 001°31'0 0.0
2017-Jan-13 08:31N 51°51' E 001°31'0 0.0
2017-Jan-13 07:31N 51°51' E 001°31'0 0.1
2017-Jan-13 06:31N 51°51' E 001°31'0 0.0
2017-Jan-13 05:31N 51°51' E 001°31'0 0.0
2017-Jan-13 04:31N 51°51' E 001°31'0 0.0
2017-Jan-13 03:31N 51°51' E 001°31'0 0.0
2017-Jan-13 02:33N 51°51' E 001°31'2 2.4
2017-Jan-13 01:33N 51°50' E 001°35'8 8.0
2017-Jan-13 00:33N 51°50' E 001°47'8 7.8
2017-Jan-12 23:33N 51°42' E 001°48'5 5.2
2017-Jan-12 22:33N 51°38' E 001°43'7 6.9
2017-Jan-12 21:33N 51°31' E 001°44'5 5.4
2017-Jan-12 20:33N 51°25' E 001°44'6 6.2
2017-Jan-12 19:33N 51°20' E 001°38'8 7.6
2017-Jan-12 18:33N 51°13' E 001°38'8 7.9
2017-Jan-12 17:33N 51°05' E 001°38'10 9.8
2017-Jan-12 16:33N 50°57' E 001°28'1110.6
2017-Jan-12 15:33N 50°47' E 001°22'5410.8
2017-Jan-12 10:33N 50°20' E 000°09'1212.1
2017-Jan-12 09:33N 50°15' W 000°08'1313.2
2017-Jan-12 08:33N 50°10' W 000°27'1413.8
2017-Jan-12 07:34N 50°04' W 000°47'1413.6
2017-Jan-12 06:33N 49°59' W 001°06'1313.2
2017-Jan-12 05:33N 49°54' W 001°25'1212.2
2017-Jan-12 04:33N 49°49' W 001°43'1110.7
2017-Jan-12 03:33N 49°45' W 001°58'47 7.9
2017-Jan-11 21:33N 49°01' W 002°24'11 9.5
2017-Jan-11 20:23N 48°51' W 002°18'10 9.8
2017-Jan-11 19:22N 48°43' W 002°08'63 1.3
2017-Jan-09 17:33N 49°46' W 001°57'5 4.5
2017-Jan-09 16:33N 49°47' W 001°51'6 5.7
2017-Jan-09 15:33N 49°51' W 001°43'6 6.3
2017-Jan-09 14:33N 49°54' W 001°35'8 8.5
2017-Jan-09 13:33N 49°58' W 001°23'10 9.9
2017-Jan-09 12:33N 50°03' W 001°10'1110.7
2017-Jan-09 11:33N 50°08' W 000°55'1210.9
2017-Jan-09 10:26N 50°15' W 000°39'1011.1
2017-Jan-09 09:29N 50°20' W 000°25'1010.6
2017-Jan-09 08:34N 50°24' W 000°12'10 9.8
2017-Jan-09 07:32N 50°29' E 000°02'9 9.4
2017-Jan-09 06:33N 50°33' E 000°16'40 9.9
2017-Jan-09 02:33N 50°54' E 001°08'1212.0
2017-Jan-09 01:33N 51°02' E 001°23'1111.1
2017-Jan-09 00:33N 51°09' E 001°36'10 9.7
2017-Jan-08 23:34N 51°16' E 001°46'9 9.2
2017-Jan-08 22:34N 51°25' E 001°52'9 8.7
2017-Jan-08 21:33N 51°32' E 002°00'10 9.5
2017-Jan-08 20:32N 51°39' E 002°11'6211.4
2017-Jan-08 15:08N 52°26' E 003°15'711.1
2017-Jan-08 14:30N 52°32' E 003°21'1010.5
2017-Jan-08 13:32N 52°40' E 003°32'1010.0
2017-Jan-08 12:32N 52°48' E 003°42'7310.3
2017-Jan-08 05:26N 53°36' E 005°13'  
Track history (hours):
 
Tides and Currents Weather Stations Pressure Air Temp Water Temp Dewpoint Dewpoint Depression Visibility Wind Speed Wind Dir Waves Ship Positions

Avalon

Last reported at 2017-Jan-17 21:25 UTC. Time now 2017-Jan-17 23:37 UTC.
Position N 54°01' E 007°50'.

Length 89 m; draft 5.4 m.

Type: Cargo ship. MMSI: 246578000.

Date/timePositionNaut miles runAvg speedWind from/ knotsBaromVisibWave heightAir tempDewpointWater temp
2017-Jan-17 21:25N 54°01' E 007°50'910.1
2017-Jan-17 20:31N 54°01' E 008°06'1111.5
2017-Jan-17 19:33N 53°60' E 008°25'1212.0
2017-Jan-17 18:33N 53°54' E 008°42'10 9.8
2017-Jan-17 17:33N 53°51' E 008°58'8 8.3
2017-Jan-17 16:33N 53°53' E 009°12'7 7.2
2017-Jan-17 15:33N 53°49' E 009°22'7 7.0
2017-Jan-17 14:33N 53°43' E 009°28'8 8.2
2017-Jan-17 13:33N 53°36' E 009°36'1110.9
2017-Jan-17 12:33N 53°33' E 009°53'3 3.5
2017-Jan-17 11:33N 53°30' E 009°57'0 0.0
2017-Jan-17 10:33N 53°30' E 009°57'0 0.0
2017-Jan-17 09:33N 53°30' E 009°57'0 0.0
2017-Jan-17 08:33N 53°30' E 009°57'0 0.0
2017-Jan-17 07:33N 53°30' E 009°57'0 0.0
2017-Jan-17 06:33N 53°30' E 009°57'0 0.0
2017-Jan-17 05:31N 53°30' E 009°57'0 0.0
2017-Jan-17 04:31N 53°30' E 009°57'0 0.0
2017-Jan-17 03:28N 53°30' E 009°57'0 0.0
2017-Jan-17 02:31N 53°30' E 009°57'0 0.0
2017-Jan-17 01:31N 53°30' E 009°57'0 0.0
2017-Jan-17 00:31N 53°30' E 009°57'0 0.0
2017-Jan-16 23:28N 53°30' E 009°57'0 0.0
2017-Jan-16 22:31N 53°30' E 009°57'0 0.0
2017-Jan-16 21:31N 53°30' E 009°57'0 0.0
2017-Jan-16 20:31N 53°30' E 009°57'0 0.0
2017-Jan-16 19:31N 53°30' E 009°57'0 0.0
2017-Jan-16 18:31N 53°30' E 009°57'0 0.0
2017-Jan-16 17:31N 53°30' E 009°57'0 0.0
2017-Jan-16 16:31N 53°30' E 009°57'0 0.0
2017-Jan-16 15:31N 53°30' E 009°57'0 0.0
2017-Jan-16 14:31N 53°30' E 009°57'1 1.4
2017-Jan-16 13:33N 53°31' E 009°56'6 6.2
2017-Jan-16 12:33N 53°34' E 009°47'6 5.9
2017-Jan-16 11:33N 53°35' E 009°37'3 2.5
2017-Jan-16 10:33N 53°37' E 009°34'0 0.0
2017-Jan-16 09:33N 53°37' E 009°34'0 0.0
2017-Jan-16 08:33N 53°37' E 009°34'0 0.0
2017-Jan-16 07:33N 53°37' E 009°34'0 0.0
2017-Jan-16 06:33N 53°37' E 009°34'0 0.1
2017-Jan-16 05:33N 53°37' E 009°34'0 0.0
2017-Jan-16 04:33N 53°37' E 009°34'0 0.0
2017-Jan-16 03:33N 53°37' E 009°34'0 0.0
2017-Jan-16 02:33N 53°37' E 009°34'0 0.0
2017-Jan-16 01:33N 53°37' E 009°34'4 4.1
2017-Jan-16 00:33N 53°40' E 009°31'1211.5
2017-Jan-15 23:34N 53°50' E 009°21'10 9.5
2017-Jan-15 22:33N 53°52' E 009°05'8 8.3
2017-Jan-15 21:33N 53°50' E 008°51'7 7.3
2017-Jan-15 20:33N 53°54' E 008°41'7 7.2
2017-Jan-15 19:32N 53°58' E 008°30'18 8.9
2017-Jan-15 17:30N 53°58' E 007°60'245 9.4
2017-Jan-14 15:33N 52°11' E 001°53'1211.8
2017-Jan-14 14:33N 51°59' E 001°49'1010.1
2017-Jan-14 13:33N 51°50' E 001°45'9 9.0
2017-Jan-14 12:33N 51°51' E 001°31'0 0.1
2017-Jan-14 11:31N 51°50' E 001°31'0 0.0
2017-Jan-14 10:31N 51°50' E 001°31'0 0.0
2017-Jan-14 09:31N 51°50' E 001°31'0 0.1
2017-Jan-14 08:31N 51°50' E 001°31'0 0.1
2017-Jan-14 07:31N 51°51' E 001°31'0 0.0
2017-Jan-14 06:31N 51°51' E 001°31'0 0.0
2017-Jan-14 05:31N 51°51' E 001°31'0 0.0
2017-Jan-14 04:31N 51°51' E 001°31'0 0.0
2017-Jan-14 03:28N 51°51' E 001°31'0 0.0
2017-Jan-13 23:31N 51°50' E 001°31'0 0.1
2017-Jan-13 22:31N 51°50' E 001°31'0 0.0
2017-Jan-13 21:31N 51°50' E 001°31'0 0.0
2017-Jan-13 20:31N 51°50' E 001°31'0 0.0
2017-Jan-13 19:31N 51°50' E 001°31'0 0.1
2017-Jan-13 18:31N 51°50' E 001°31'0 0.0
2017-Jan-13 17:31N 51°50' E 001°31'0 0.0
2017-Jan-13 16:31N 51°50' E 001°31'0 0.0
2017-Jan-13 15:31N 51°50' E 001°31'0 0.0
2017-Jan-13 14:31N 51°50' E 001°31'0 0.2
2017-Jan-13 13:31N 51°51' E 001°31'0 0.0
2017-Jan-13 12:31N 51°51' E 001°31'0 0.1
2017-Jan-13 11:31N 51°51' E 001°31'0 0.1
2017-Jan-13 10:31N 51°51' E 001°31'0 0.1
2017-Jan-13 09:31N 51°51' E 001°31'0 0.0
2017-Jan-13 08:31N 51°51' E 001°31'0 0.0
2017-Jan-13 07:31N 51°51' E 001°31'0 0.1
2017-Jan-13 06:31N 51°51' E 001°31'0 0.0
2017-Jan-13 05:31N 51°51' E 001°31'0 0.0
2017-Jan-13 04:31N 51°51' E 001°31'0 0.0
2017-Jan-13 03:31N 51°51' E 001°31'0 0.0
2017-Jan-13 02:33N 51°51' E 001°31'2 2.4
2017-Jan-13 01:33N 51°50' E 001°35'8 8.0
2017-Jan-13 00:33N 51°50' E 001°47'8 7.8
2017-Jan-12 23:33N 51°42' E 001°48'5 5.2
2017-Jan-12 22:33N 51°38' E 001°43'7 6.9
2017-Jan-12 21:33N 51°31' E 001°44'5 5.4
2017-Jan-12 20:33N 51°25' E 001°44'6 6.2
2017-Jan-12 19:33N 51°20' E 001°38'8 7.6
2017-Jan-12 18:33N 51°13' E 001°38'8 7.9
2017-Jan-12 17:33N 51°05' E 001°38'10 9.8
2017-Jan-12 16:33N 50°57' E 001°28'1110.6
2017-Jan-12 15:33N 50°47' E 001°22'5410.8
2017-Jan-12 10:33N 50°20' E 000°09'1212.1
2017-Jan-12 09:33N 50°15' W 000°08'1313.2
2017-Jan-12 08:33N 50°10' W 000°27'1413.8
2017-Jan-12 07:34N 50°04' W 000°47'1413.6
2017-Jan-12 06:33N 49°59' W 001°06'1313.2
2017-Jan-12 05:33N 49°54' W 001°25'1212.2
2017-Jan-12 04:33N 49°49' W 001°43'1110.7
2017-Jan-12 03:33N 49°45' W 001°58'47 7.9
2017-Jan-11 21:33N 49°01' W 002°24'11 9.5
2017-Jan-11 20:23N 48°51' W 002°18'10 9.8
2017-Jan-11 19:22N 48°43' W 002°08'63 1.3
2017-Jan-09 17:33N 49°46' W 001°57'5 4.5
2017-Jan-09 16:33N 49°47' W 001°51'6 5.7
2017-Jan-09 15:33N 49°51' W 001°43'6 6.3
2017-Jan-09 14:33N 49°54' W 001°35'8 8.5
2017-Jan-09 13:33N 49°58' W 001°23'10 9.9
2017-Jan-09 12:33N 50°03' W 001°10'1110.7
2017-Jan-09 11:33N 50°08' W 000°55'1210.9
2017-Jan-09 10:26N 50°15' W 000°39'1011.1
2017-Jan-09 09:29N 50°20' W 000°25'1010.6
2017-Jan-09 08:34N 50°24' W 000°12'10 9.8
2017-Jan-09 07:32N 50°29' E 000°02'9 9.4
2017-Jan-09 06:33N 50°33' E 000°16'40 9.9
2017-Jan-09 02:33N 50°54' E 001°08'1212.0
2017-Jan-09 01:33N 51°02' E 001°23'1111.1
2017-Jan-09 00:33N 51°09' E 001°36'10 9.7
2017-Jan-08 23:34N 51°16' E 001°46'9 9.2
2017-Jan-08 22:34N 51°25' E 001°52'9 8.7
2017-Jan-08 21:33N 51°32' E 002°00'10 9.5
2017-Jan-08 20:32N 51°39' E 002°11'6211.4
2017-Jan-08 15:08N 52°26' E 003°15'711.1
2017-Jan-08 14:30N 52°32' E 003°21'1010.5
2017-Jan-08 13:32N 52°40' E 003°32'1010.0
2017-Jan-08 12:32N 52°48' E 003°42'7310.3
2017-Jan-08 05:26N 53°36' E 005°13'  

Dump ship's entire track history